Billy Bishop Toronto City Centre Airport
CYTZ : rendu visible

Aérodrome :











RETROUVEZ-NOUS SUR...

 
LOGIN :

S'inscrire | Disclaimer

   EN    FR    IT 

 









Légende :    VFR   VFR Marginal   IFR   IFR Intensif   IFR Très Intensif
Visi : 
Plafond : 
>= 8 km
>= 3000ft
5 à 8 km
1000 à 3000 ft
1500m à 5 km
500 à 1000 ft
800 à 1500m
200 à 500 ft
< 800m
< 200 ft
Symboles :   Orages  Brouillard  Fortes neiges  Fortes précipitations  Vent > 20 kt






- Altitude de l'aérodrome : 251 ft
- Code IATA : YTZ


CYTZ - Billy Bishop Toronto City Centre

DERNIER METAR :
  • 190700Z AUTO 25020KT 9SM SCT040 BKN130 BKN150 01/M02 A2956 RMK SLP014

METARs EXPIRÉS :
  • 190626Z AUTO 25020G28KT 9SM FEW028 SCT040 BKN048 01/M02 A2955 RMK SLP011
  • 190608Z AUTO 26023G30KT 9SM -SN BKN050 OVC070 01/M02 A2954 RMK SLP008
  • 190500Z AUTO 26024G32KT 9SM SCT028 BKN035 OVC150 02/M02 A2954 RMK SLP006

TAF AMD TAF CYTZ
Valide du 19 à 06h jusqu'au 20 à 02h UTC


190614Z 1906/2002 26020G35KT P6SM -SHSN OVC030
TEMPO 1906/1910 2SM -SHSN OVC020
FM191000 26013G23KT P6SM -SHSN OVC030
TEMPO 1910/1913 21/2SM -SN OVC020
PROB30 1910/1913 30015G25KT 3/4SM -SHSN BLSN VV006
FM191300 30010G20KT P6SM BKN030 BKN100
BECMG 1915/1917 33012G25KT RMK FCST BASED ON AUTO OBS. NXT FCST BY 190800Z



MET'MAP, la Météo Aéronautique d'un coup d'oeil ! - Copyright ORBIFLY Décembre 2007 - Disclaimer

ORBIFLY MET'MAP TEAM :

Programmation & Développement : Alexandra Zaïnal
Sur une idée originale de : Baudouin d'Aumeries
Assistance à la programmation : Marc-Olivier Méhu
Soutien technique & logistique : Manuel Goepfert

Contact : metmap@orbifly.com




SOURCES & CREDITS :

   NOAA       Earth
Advisory